Time;durP1;ratioP1;P1;durP2;ratioP2;P2;SDS_P1;SDS_P2;PMS_P1;PMS_P2;Temp;Humidity;BMP_temperature;BMP_pressure;BME280_temperature;BME280_humidity;BME280_pressure;Samples;Min_cycle;Max_cycle;Signal;HPM_P1;HPM_P2
2021/04/26 00:01:34;;;;;;;13.50;4.97;;;;;;;;;;4994639;28;20527;-63
2021/04/26 00:04:02;;;;;;;9.90;5.23;;;;;;;;;;4994852;28;20484;-62
2021/04/26 00:06:29;;;;;;;6.57;4.90;;;;;;;;;;4994742;28;20516;-63
2021/04/26 00:08:55;;;;;;;8.47;4.87;;;;;;;;;;4994604;28;20837;-62
2021/04/26 00:11:22;;;;;;;13.87;5.37;;;;;;;;;;4994269;28;20524;-62
2021/04/26 00:13:49;;;;;;;9.20;5.47;;;;;;;;;;4994964;28;20444;-63
2021/04/26 00:16:15;;;;;;;11.90;5.67;;;;;;;;;;4994588;28;20453;-62
2021/04/26 00:18:42;;;;;;;14.13;5.90;;;;;;;;;;4994553;28;20493;-63
2021/04/26 00:21:08;;;;;;;8.57;5.23;;;;;;;;;;4994286;28;20523;-63
2021/04/26 00:23:36;;;;;;;9.70;5.40;;;;;;;;;;4994374;28;21024;-62
2021/04/26 00:26:02;;;;;;;15.33;5.57;;;;;;;;;;4994360;28;20459;-62
2021/04/26 00:28:29;;;;;;;10.13;5.33;;;;;;;;;;4994666;28;20456;-62
2021/04/26 00:30:55;;;;;;;10.97;5.60;;;;;;;;;;4993983;28;21120;-62
2021/04/26 00:33:22;;;;;;;11.37;5.57;;;;;;;;;;4994202;28;20455;-62
2021/04/26 00:35:48;;;;;;;10.63;5.23;;;;;;;;;;4994019;28;20448;-62
2021/04/26 00:38:15;;;;;;;9.83;5.30;;;;;;;;;;4994038;28;20484;-63
2021/04/26 00:40:42;;;;;;;11.77;6.17;;;;;;;;;;4993708;28;20460;-62
2021/04/26 00:43:09;;;;;;;7.90;5.60;;;;;;;;;;4994093;28;20847;-62
2021/04/26 00:45:35;;;;;;;10.83;5.50;;;;;;;;;;4993822;28;20824;-62
2021/04/26 00:48:02;;;;;;;8.63;6.17;;;;;;;;;;4994002;28;20456;-63
2021/04/26 00:50:30;;;;;;;9.13;5.87;;;;;;;;;;4993703;28;20951;-63
2021/04/26 00:52:57;;;;;;;11.20;6.13;;;;;;;;;;4993596;28;20471;-62
2021/04/26 00:55:25;;;;;;;14.77;6.20;;;;;;;;;;4993939;28;20456;-63
2021/04/26 00:57:52;;;;;;;12.30;6.53;;;;;;;;;;4994080;28;20487;-63
2021/04/26 01:00:19;;;;;;;9.13;6.40;;;;;;;;;;4993722;28;20459;-63
2021/04/26 01:02:46;;;;;;;9.57;6.80;;;;;;;;;;4993495;28;20475;-63
2021/04/26 01:05:14;;;;;;;14.07;7.70;;;;;;;;;;4993517;28;20454;-63
2021/04/26 01:07:41;;;;;;;13.37;6.97;;;;;;;;;;4993361;28;20452;-63
2021/04/26 01:10:09;;;;;;;11.40;6.90;;;;;;;;;;4993725;28;20448;-62
2021/04/26 01:12:42;;;;;;;16.73;7.00;;;;;;;;;;4993873;28;20991;-62
2021/04/26 01:15:12;;;;;;;12.87;7.00;;;;;;;;;;4993830;28;20457;-63
2021/04/26 01:17:47;;;;;;;14.97;7.23;;;;;;;;;;4993325;28;20479;-62
2021/04/26 01:20:35;;;;;;;10.33;7.13;;;;;;;;;;4993132;28;20456;-63
2021/04/26 01:23:29;;;;;;;11.97;7.50;;;;;;;;;;4993271;28;20456;-63
2021/04/26 01:25:56;;;;;;;13.07;7.37;;;;;;;;;;4993664;28;20505;-63
2021/04/26 01:28:32;;;;;;;9.10;7.30;;;;;;;;;;4993321;28;21057;-62
2021/04/26 01:31:00;;;;;;;15.50;7.60;;;;;;;;;;4993459;28;20466;-63
2021/04/26 01:33:30;;;;;;;13.73;7.70;;;;;;;;;;4992932;28;20451;-62
2021/04/26 01:35:59;;;;;;;11.77;7.70;;;;;;;;;;4993188;28;20459;-63
2021/04/26 01:38:26;;;;;;;10.33;7.53;;;;;;;;;;4993339;28;20479;-60
2021/04/26 01:40:55;;;;;;;12.63;7.57;;;;;;;;;;4993019;28;20480;-63
2021/04/26 01:43:22;;;;;;;13.33;8.50;;;;;;;;;;4993423;28;20458;-62
2021/04/26 01:45:51;;;;;;;12.90;8.60;;;;;;;;;;4993098;28;20446;-62
2021/04/26 01:48:19;;;;;;;17.80;9.03;;;;;;;;;;4993122;28;20454;-62
2021/04/26 01:50:47;;;;;;;16.87;8.30;;;;;;;;;;4992459;28;20458;-62
2021/04/26 01:53:16;;;;;;;13.80;7.87;;;;;;;;;;4992963;28;20796;-63
2021/04/26 01:55:42;;;;;;;13.43;8.23;;;;;;;;;;4992207;28;20462;-63
2021/04/26 01:58:09;;;;;;;14.13;8.53;;;;;;;;;;4992822;28;20869;-63
2021/04/26 02:00:36;;;;;;;14.40;9.03;;;;;;;;;;4992651;28;20505;-62
2021/04/26 02:03:03;;;;;;;13.53;8.67;;;;;;;;;;4992762;28;20458;-63
2021/04/26 02:05:31;;;;;;;15.67;9.60;;;;;;;;;;4992609;28;20947;-63
2021/04/26 02:07:59;;;;;;;13.57;8.47;;;;;;;;;;4992427;28;20451;-62
2021/04/26 02:10:28;;;;;;;15.70;9.53;;;;;;;;;;4992698;28;20458;-63
2021/04/26 02:12:55;;;;;;;16.70;9.47;;;;;;;;;;4992446;28;20562;-63
2021/04/26 02:15:22;;;;;;;14.63;9.43;;;;;;;;;;4992513;28;20455;-61
2021/04/26 02:17:50;;;;;;;13.43;8.97;;;;;;;;;;4992541;28;20483;-63
2021/04/26 02:20:17;;;;;;;13.40;8.60;;;;;;;;;;4992227;28;20839;-63
2021/04/26 02:22:44;;;;;;;15.00;9.23;;;;;;;;;;4992409;28;20982;-63
2021/04/26 02:25:13;;;;;;;17.23;9.80;;;;;;;;;;4992601;28;20510;-63
2021/04/26 02:27:39;;;;;;;17.50;8.33;;;;;;;;;;4992560;28;20447;-63
2021/04/26 02:30:07;;;;;;;17.13;9.57;;;;;;;;;;4992442;28;20454;-63
2021/04/26 02:32:36;;;;;;;16.60;9.23;;;;;;;;;;4992325;28;20853;-63
2021/04/26 02:35:04;;;;;;;15.83;9.63;;;;;;;;;;4992319;28;20454;-63
2021/04/26 02:37:34;;;;;;;13.73;8.83;;;;;;;;;;4992454;28;21291;-63
2021/04/26 02:40:03;;;;;;;15.20;9.33;;;;;;;;;;4992441;28;20964;-63
2021/04/26 02:42:31;;;;;;;15.20;8.83;;;;;;;;;;4992243;28;20531;-61
2021/04/26 02:44:58;;;;;;;13.23;8.90;;;;;;;;;;4992329;28;20460;-63
2021/04/26 02:47:25;;;;;;;13.47;9.33;;;;;;;;;;4992394;28;20443;-63
2021/04/26 02:49:52;;;;;;;15.30;9.30;;;;;;;;;;4991778;28;20458;-63
2021/04/26 02:52:18;;;;;;;14.80;10.00;;;;;;;;;;4992568;28;21162;-63
2021/04/26 02:54:46;;;;;;;14.60;9.80;;;;;;;;;;4992293;28;20817;-63
2021/04/26 02:57:13;;;;;;;16.20;10.40;;;;;;;;;;4992355;28;20451;-62
2021/04/26 02:59:41;;;;;;;16.30;8.87;;;;;;;;;;4992050;28;20455;-63
2021/04/26 03:02:07;;;;;;;14.40;9.27;;;;;;;;;;4991918;28;20822;-63
2021/04/26 03:04:34;;;;;;;14.90;9.20;;;;;;;;;;4992274;28;21109;-63
2021/04/26 03:07:03;;;;;;;14.80;8.10;;;;;;;;;;4992933;28;20477;-63
2021/04/26 03:09:31;;;;;;;12.47;8.83;;;;;;;;;;4995885;28;20466;-62
2021/04/26 03:11:57;;;;;;;13.27;9.03;;;;;;;;;;4995510;28;20478;-62
2021/04/26 03:14:25;;;;;;;14.43;9.03;;;;;;;;;;4995624;28;20451;-63
2021/04/26 03:16:53;;;;;;;12.00;8.10;;;;;;;;;;4995557;28;20462;-61
2021/04/26 03:19:20;;;;;;;13.33;8.97;;;;;;;;;;4995655;28;20988;-62
2021/04/26 03:21:47;;;;;;;13.37;9.43;;;;;;;;;;4995598;28;20529;-63
2021/04/26 03:24:14;;;;;;;15.00;9.03;;;;;;;;;;4995243;28;20466;-62
2021/04/26 03:26:41;;;;;;;14.93;8.80;;;;;;;;;;4995599;28;20455;-62
2021/04/26 03:29:08;;;;;;;15.03;9.20;;;;;;;;;;4995188;28;20458;-62
2021/04/26 03:31:35;;;;;;;16.50;9.70;;;;;;;;;;4994962;28;20474;-62
2021/04/26 03:34:03;;;;;;;12.93;8.83;;;;;;;;;;4995455;28;20447;-61
2021/04/26 03:36:30;;;;;;;18.90;9.70;;;;;;;;;;4995318;28;20447;-62
2021/04/26 03:38:56;;;;;;;13.80;8.53;;;;;;;;;;4995241;28;20894;-62
2021/04/26 03:41:23;;;;;;;17.53;9.60;;;;;;;;;;4994857;28;20475;-63
2021/04/26 03:43:50;;;;;;;17.10;9.97;;;;;;;;;;4994968;28;20447;-63
2021/04/26 03:46:16;;;;;;;17.23;9.27;;;;;;;;;;4995393;28;20535;-62
2021/04/26 03:48:43;;;;;;;15.63;9.67;;;;;;;;;;4996564;28;20507;-62
2021/04/26 03:51:10;;;;;;;16.13;9.63;;;;;;;;;;4995664;28;20478;-62
2021/04/26 03:53:37;;;;;;;16.30;10.73;;;;;;;;;;4994743;28;20455;-62
2021/04/26 03:56:03;;;;;;;13.97;9.43;;;;;;;;;;4994768;28;20447;-63
2021/04/26 03:58:30;;;;;;;17.60;9.97;;;;;;;;;;4994554;28;20854;-62
2021/04/26 04:00:56;;;;;;;16.10;10.43;;;;;;;;;;4994888;28;20471;-62
2021/04/26 04:03:23;;;;;;;22.80;11.03;;;;;;;;;;4994749;28;20455;-63
2021/04/26 04:05:50;;;;;;;17.40;10.67;;;;;;;;;;4994363;28;20458;-63
2021/04/26 04:08:17;;;;;;;14.23;9.43;;;;;;;;;;4994486;28;20534;-63
2021/04/26 04:10:44;;;;;;;16.00;10.43;;;;;;;;;;4994123;28;20451;-62
2021/04/26 04:13:10;;;;;;;17.90;10.73;;;;;;;;;;4994131;28;20451;-62
2021/04/26 04:15:37;;;;;;;20.80;10.77;;;;;;;;;;4995545;28;20447;-61
2021/04/26 04:18:03;;;;;;;17.30;10.10;;;;;;;;;;5013360;28;20856;-62
2021/04/26 04:20:30;;;;;;;17.10;12.53;;;;;;;;;;5012003;28;20931;-63
2021/04/26 04:22:56;;;;;;;18.20;11.33;;;;;;;;;;5013603;28;20481;-62
2021/04/26 04:25:24;;;;;;;14.67;10.33;;;;;;;;;;5013819;28;20846;-62
2021/04/26 04:27:50;;;;;;;15.90;10.50;;;;;;;;;;5013680;28;20476;-63
2021/04/26 04:30:17;;;;;;;21.87;11.13;;;;;;;;;;5011509;28;20457;-60
2021/04/26 04:32:44;;;;;;;27.13;14.53;;;;;;;;;;4996375;28;20471;-61
2021/04/26 04:35:10;;;;;;;24.20;13.40;;;;;;;;;;4994118;28;20462;-60
2021/04/26 04:37:37;;;;;;;20.67;12.60;;;;;;;;;;4993976;28;20517;-61
2021/04/26 04:40:04;;;;;;;22.63;12.20;;;;;;;;;;4993440;28;20956;-60
2021/04/26 04:42:31;;;;;;;19.97;12.17;;;;;;;;;;4993599;28;21002;-60
2021/04/26 04:44:58;;;;;;;22.20;12.27;;;;;;;;;;4993419;28;20454;-62
2021/04/26 04:47:25;;;;;;;22.27;12.27;;;;;;;;;;4993999;28;20459;-61
2021/04/26 04:49:51;;;;;;;20.23;12.60;;;;;;;;;;4993518;28;20476;-62
2021/04/26 04:52:17;;;;;;;18.80;12.07;;;;;;;;;;4993624;28;20481;-60
2021/04/26 04:54:44;;;;;;;19.93;11.80;;;;;;;;;;4993278;28;20458;-62
2021/04/26 04:57:10;;;;;;;16.70;11.73;;;;;;;;;;4993527;28;20447;-62
2021/04/26 04:59:38;;;;;;;18.90;12.40;;;;;;;;;;4993344;28;20491;-60
2021/04/26 05:02:05;;;;;;;25.03;12.33;;;;;;;;;;4993351;28;20561;-62
2021/04/26 05:04:31;;;;;;;20.03;12.60;;;;;;;;;;4993155;28;20465;-62
2021/04/26 05:06:58;;;;;;;21.83;13.17;;;;;;;;;;4993287;28;20447;-62
2021/04/26 05:09:24;;;;;;;20.70;11.37;;;;;;;;;;4992938;28;20451;-61
2021/04/26 05:11:51;;;;;;;20.53;12.47;;;;;;;;;;4993061;28;20606;-62
2021/04/26 05:14:17;;;;;;;18.80;11.67;;;;;;;;;;4993098;28;20966;-62
2021/04/26 05:16:45;;;;;;;25.77;12.70;;;;;;;;;;4993250;28;20471;-62
2021/04/26 05:19:12;;;;;;;22.03;12.03;;;;;;;;;;4992997;28;20859;-62
2021/04/26 05:21:39;;;;;;;19.40;11.80;;;;;;;;;;4992519;28;20471;-62
2021/04/26 05:24:06;;;;;;;18.83;10.73;;;;;;;;;;4992980;28;20470;-62
2021/04/26 05:26:33;;;;;;;18.20;11.43;;;;;;;;;;4993037;28;20458;-62
2021/04/26 05:28:59;;;;;;;22.23;11.30;;;;;;;;;;4993095;28;20493;-62
2021/04/26 05:31:26;;;;;;;15.67;10.70;;;;;;;;;;4992123;28;20521;-68
2021/04/26 05:33:53;;;;;;;18.47;10.70;;;;;;;;;;5005741;28;20882;-68
2021/04/26 05:36:20;;;;;;;16.23;11.37;;;;;;;;;;4992353;28;20955;-64
2021/04/26 05:38:46;;;;;;;19.47;11.00;;;;;;;;;;4992278;28;20494;-65
2021/04/26 05:41:13;;;;;;;19.23;11.13;;;;;;;;;;4992386;28;20471;-63
2021/04/26 05:43:39;;;;;;;20.23;10.90;;;;;;;;;;4992368;28;20477;-65
2021/04/26 05:46:06;;;;;;;17.13;10.90;;;;;;;;;;4992433;28;20563;-65
2021/04/26 05:48:32;;;;;;;19.73;10.60;;;;;;;;;;4993086;28;20511;-64
2021/04/26 05:51:00;;;;;;;19.90;11.17;;;;;;;;;;4991970;28;21181;-64
2021/04/26 05:53:26;;;;;;;18.60;10.83;;;;;;;;;;4992357;28;20877;-65
2021/04/26 05:55:53;;;;;;;18.83;11.40;;;;;;;;;;4992741;28;20458;-66
2021/04/26 05:58:21;;;;;;;16.40;11.23;;;;;;;;;;4993277;28;20491;-63
2021/04/26 06:00:47;;;;;;;17.40;8.93;;;;;;;;;;4992625;28;20575;-65
2021/04/26 06:03:14;;;;;;;18.27;10.63;;;;;;;;;;4992377;28;21034;-65
2021/04/26 06:05:40;;;;;;;14.63;10.43;;;;;;;;;;4992674;28;20463;-64
2021/04/26 06:08:08;;;;;;;16.30;10.27;;;;;;;;;;4993190;28;20445;-64
2021/04/26 06:10:34;;;;;;;14.33;9.60;;;;;;;;;;4992335;28;20518;-63
2021/04/26 06:13:01;;;;;;;15.03;9.83;;;;;;;;;;4991777;28;20456;-65
2021/04/26 06:15:27;;;;;;;14.47;10.40;;;;;;;;;;4991925;28;20457;-66
2021/04/26 06:18:06;;;;;;;15.40;9.70;;;;;;;;;;4991780;28;20499;-67
2021/04/26 06:20:32;;;;;;;13.93;9.90;;;;;;;;;;4991609;28;20460;-64
2021/04/26 06:22:59;;;;;;;13.40;9.17;;;;;;;;;;4991539;28;20476;-63
2021/04/26 06:25:26;;;;;;;14.13;8.90;;;;;;;;;;4991889;28;20461;-64
2021/04/26 06:27:53;;;;;;;12.93;9.10;;;;;;;;;;4991872;28;20452;-63
2021/04/26 06:30:20;;;;;;;15.77;9.40;;;;;;;;;;4991626;28;20466;-62
2021/04/26 06:32:46;;;;;;;13.90;8.87;;;;;;;;;;4991173;28;20846;-67
2021/04/26 06:35:13;;;;;;;14.13;8.90;;;;;;;;;;5004106;28;20450;-67
2021/04/26 06:37:40;;;;;;;14.90;8.10;;;;;;;;;;5011376;28;20477;-67
2021/04/26 06:40:07;;;;;;;10.90;8.13;;;;;;;;;;5008597;28;20454;-66
2021/04/26 06:42:34;;;;;;;11.60;7.87;;;;;;;;;;4993199;28;20986;-66
2021/04/26 06:45:01;;;;;;;12.57;8.33;;;;;;;;;;4995147;28;20454;-66
2021/04/26 06:47:27;;;;;;;12.63;8.00;;;;;;;;;;4995268;28;20969;-66
2021/04/26 06:49:54;;;;;;;10.97;7.07;;;;;;;;;;4995391;28;20446;-64
2021/04/26 06:52:20;;;;;;;12.67;6.83;;;;;;;;;;4995505;28;20478;-62
2021/04/26 06:54:47;;;;;;;12.37;7.30;;;;;;;;;;4995221;28;20450;-66
2021/04/26 06:57:13;;;;;;;15.47;7.60;;;;;;;;;;4995398;28;20998;-65
2021/04/26 06:59:41;;;;;;;9.33;7.70;;;;;;;;;;4994851;28;20490;-63
2021/04/26 07:02:08;;;;;;;13.07;7.77;;;;;;;;;;4995798;28;20824;-55
2021/04/26 07:04:34;;;;;;;11.17;7.00;;;;;;;;;;4995374;28;20462;-59
2021/04/26 07:07:02;;;;;;;10.43;6.57;;;;;;;;;;4995500;28;20951;-62
2021/04/26 07:09:28;;;;;;;10.67;6.73;;;;;;;;;;4995370;28;20538;-62
2021/04/26 07:11:56;;;;;;;10.40;5.77;;;;;;;;;;4995071;28;20230;-63
2021/04/26 07:14:23;;;;;;;9.03;5.80;;;;;;;;;;4994640;28;20239;-66
2021/04/26 07:16:50;;;;;;;12.90;5.93;;;;;;;;;;4995120;28;20263;-63
2021/04/26 07:19:17;;;;;;;5.77;3.97;;;;;;;;;;4995136;28;20229;-63
2021/04/26 07:21:43;;;;;;;6.00;3.23;;;;;;;;;;4994842;28;20230;-63
2021/04/26 07:24:10;;;;;;;5.17;3.77;;;;;;;;;;4994533;28;20702;-63
2021/04/26 07:26:37;;;;;;;6.47;4.17;;;;;;;;;;4995421;28;20214;-61
2021/04/26 07:29:04;;;;;;;5.80;3.23;;;;;;;;;;4994806;28;20211;-62
2021/04/26 07:31:31;;;;;;;6.67;4.30;;;;;;;;;;4994999;28;20593;-60
2021/04/26 07:33:58;;;;;;;4.57;2.67;;;;;;;;;;4994593;28;20214;-63
2021/04/26 07:36:24;;;;;;;3.13;2.43;;;;;;;;;;4994638;28;20257;-61
2021/04/26 07:38:51;;;;;;;4.03;2.70;;;;;;;;;;4994536;28;20255;-62
2021/04/26 07:41:17;;;;;;;6.73;3.53;;;;;;;;;;4994188;28;20577;-60
2021/04/26 07:43:44;;;;;;;5.63;2.93;;;;;;;;;;4994540;28;20210;-62
2021/04/26 07:46:11;;;;;;;5.87;2.90;;;;;;;;;;4994879;28;20803;-63
2021/04/26 07:48:38;;;;;;;4.60;2.90;;;;;;;;;;4994588;28;20565;-65
2021/04/26 07:51:05;;;;;;;7.70;2.90;;;;;;;;;;4994287;28;20317;-65
2021/04/26 07:53:32;;;;;;;3.83;2.40;;;;;;;;;;4993083;28;20721;-65
2021/04/26 07:55:59;;;;;;;6.17;2.73;;;;;;;;;;4994283;28;20211;-65
2021/04/26 07:58:25;;;;;;;6.20;2.80;;;;;;;;;;4994504;28;20231;-57
2021/04/26 08:00:52;;;;;;;4.00;2.50;;;;;;;;;;4994312;28;20752;-55
2021/04/26 08:03:19;;;;;;;4.30;2.67;;;;;;;;;;4994203;28;20219;-65
2021/04/26 08:05:46;;;;;;;4.67;2.80;;;;;;;;;;4994420;28;20684;-65
2021/04/26 08:08:13;;;;;;;5.60;2.57;;;;;;;;;;4994390;28;20208;-65
2021/04/26 08:10:40;;;;;;;3.90;2.30;;;;;;;;;;4994155;28;20278;-65
2021/04/26 08:13:06;;;;;;;7.60;2.40;;;;;;;;;;4994173;28;20204;-65
2021/04/26 08:15:33;;;;;;;3.80;2.50;;;;;;;;;;4994435;28;20208;-66
2021/04/26 08:18:00;;;;;;;7.47;2.37;;;;;;;;;;4994041;28;20227;-66
2021/04/26 08:20:26;;;;;;;3.10;2.00;;;;;;;;;;4993886;28;20216;-65
2021/04/26 08:22:53;;;;;;;3.73;2.33;;;;;;;;;;4997912;28;20675;-67
2021/04/26 08:25:20;;;;;;;5.40;2.20;;;;;;;;;;4995088;28;20223;-65
2021/04/26 08:27:47;;;;;;;2.50;2.00;;;;;;;;;;4993856;28;20210;-66
2021/04/26 08:30:14;;;;;;;4.63;2.20;;;;;;;;;;4993672;28;20212;-66
2021/04/26 08:32:41;;;;;;;3.57;1.93;;;;;;;;;;4993542;28;20232;-65
2021/04/26 08:35:09;;;;;;;3.10;1.90;;;;;;;;;;4993533;28;20258;-67
2021/04/26 08:37:35;;;;;;;4.73;2.20;;;;;;;;;;4993441;28;20214;-66
2021/04/26 08:40:02;;;;;;;3.67;2.40;;;;;;;;;;4993517;28;20266;-63
2021/04/26 08:42:29;;;;;;;5.33;2.70;;;;;;;;;;4993370;28;20228;-63
2021/04/26 08:44:56;;;;;;;5.20;2.70;;;;;;;;;;4993550;28;20247;-64
2021/04/26 08:47:25;;;;;;;4.63;2.43;;;;;;;;;;4993530;28;20623;-66
2021/04/26 08:49:54;;;;;;;5.30;2.70;;;;;;;;;;4993473;28;20205;-66
2021/04/26 08:52:20;;;;;;;4.63;2.67;;;;;;;;;;4993410;28;20232;-65
2021/04/26 08:54:47;;;;;;;2.77;2.30;;;;;;;;;;4993273;28;20213;-69
2021/04/26 08:57:13;;;;;;;6.53;2.43;;;;;;;;;;4993346;28;20207;-66
2021/04/26 08:59:43;;;;;;;5.13;2.07;;;;;;;;;;4993675;28;20577;-65
2021/04/26 09:02:09;;;;;;;4.83;2.67;;;;;;;;;;4992833;28;20720;-63
2021/04/26 09:04:37;;;;;;;3.90;2.40;;;;;;;;;;4992546;28;20211;-67
2021/04/26 09:07:04;;;;;;;4.63;2.53;;;;;;;;;;4992923;28;20212;-66
2021/04/26 09:09:39;;;;;;;4.80;2.83;;;;;;;;;;4992993;28;20672;-66
2021/04/26 09:12:06;;;;;;;3.27;2.40;;;;;;;;;;4992996;28;20369;-66
2021/04/26 09:14:37;;;;;;;5.93;3.20;;;;;;;;;;4992885;28;20584;-67
2021/04/26 09:17:18;;;;;;;4.83;2.90;;;;;;;;;;4992998;28;20208;-65
2021/04/26 09:19:45;;;;;;;4.70;3.17;;;;;;;;;;4992640;28;20224;-63
2021/04/26 09:22:14;;;;;;;4.83;2.90;;;;;;;;;;4993057;28;20234;-67
2021/04/26 09:24:40;;;;;;;5.90;2.90;;;;;;;;;;4992445;28;20663;-67
2021/04/26 09:27:09;;;;;;;6.20;3.00;;;;;;;;;;4992652;28;20696;-67
2021/04/26 09:29:36;;;;;;;6.50;2.87;;;;;;;;;;4992620;28;20211;-66
2021/04/26 09:32:10;;;;;;;4.40;2.80;;;;;;;;;;4992391;28;20228;-62
2021/04/26 09:34:38;;;;;;;5.80;3.87;;;;;;;;;;4993349;28;20679;-63
2021/04/26 09:37:07;;;;;;;6.83;3.40;;;;;;;;;;4992830;28;20215;-61
2021/04/26 09:39:36;;;;;;;5.20;2.83;;;;;;;;;;4992464;28;20228;-62
2021/04/26 09:42:02;;;;;;;2.90;2.60;;;;;;;;;;4992267;28;20767;-63
2021/04/26 09:44:29;;;;;;;4.23;2.70;;;;;;;;;;4992344;28;20563;-62
2021/04/26 09:46:55;;;;;;;6.23;3.10;;;;;;;;;;4992745;28;20223;-63
2021/04/26 09:49:23;;;;;;;2.80;2.53;;;;;;;;;;4992355;28;20209;-60
2021/04/26 09:51:50;;;;;;;4.53;2.73;;;;;;;;;;4992172;28;20237;-60
2021/04/26 09:54:17;;;;;;;5.20;2.83;;;;;;;;;;4992504;28;20212;-63
2021/04/26 09:56:45;;;;;;;5.23;2.93;;;;;;;;;;4991974;28;20220;-65
2021/04/26 09:59:12;;;;;;;5.40;3.00;;;;;;;;;;4992426;28;20236;-62
2021/04/26 10:01:38;;;;;;;5.60;2.97;;;;;;;;;;4992046;28;20283;-66
2021/04/26 10:04:06;;;;;;;4.33;2.67;;;;;;;;;;4992372;28;20630;-65
2021/04/26 10:06:33;;;;;;;5.67;3.23;;;;;;;;;;4992465;28;20223;-66
2021/04/26 10:09:00;;;;;;;4.13;2.80;;;;;;;;;;4992341;28;20208;-66
2021/04/26 10:11:29;;;;;;;3.83;3.03;;;;;;;;;;4991820;28;20234;-59
2021/04/26 10:14:05;;;;;;;5.73;3.40;;;;;;;;;;4992140;28;20213;-66
2021/04/26 10:16:37;;;;;;;13.10;3.43;;;;;;;;;;4991544;28;20209;-61
2021/04/26 10:19:05;;;;;;;4.00;2.70;;;;;;;;;;4992538;28;20286;-60
2021/04/26 10:21:32;;;;;;;5.80;3.00;;;;;;;;;;4992299;28;20234;-59
2021/04/26 10:24:12;;;;;;;4.33;3.30;;;;;;;;;;4991584;28;20812;-53
2021/04/26 10:26:40;;;;;;;4.33;3.30;;;;;;;;;;4992081;28;20202;-60
2021/04/26 10:29:13;;;;;;;8.80;2.97;;;;;;;;;;4992122;28;20213;-62
2021/04/26 10:32:10;;;;;;;5.03;3.20;;;;;;;;;;4991907;28;20750;-62
2021/04/26 10:34:38;;;;;;;6.63;3.50;;;;;;;;;;4931500;29;20219;-64
2021/04/26 10:37:05;;;;;;;7.07;3.03;;;;;;;;;;4978458;28;20214;-64
2021/04/26 10:39:32;;;;;;;6.20;3.00;;;;;;;;;;4994824;28;20226;-64
2021/04/26 10:42:05;;;;;;;7.80;3.70;;;;;;;;;;4996900;28;20265;-64
2021/04/26 10:44:51;;;;;;;6.63;3.77;;;;;;;;;;5000575;28;20210;-64
2021/04/26 10:47:20;;;;;;;4.33;2.90;;;;;;;;;;4992623;28;20212;-65
2021/04/26 10:49:47;;;;;;;5.07;3.50;;;;;;;;;;4992143;28;20227;-64
2021/04/26 10:52:33;;;;;;;3.97;3.07;;;;;;;;;;4991943;28;20229;-64
2021/04/26 10:55:01;;;;;;;5.33;3.10;;;;;;;;;;4991575;28;20245;-62
2021/04/26 10:57:32;;;;;;;6.20;3.50;;;;;;;;;;4995061;28;20214;-62
2021/04/26 11:00:13;;;;;;;6.17;4.00;;;;;;;;;;4995449;28;20237;-62
2021/04/26 11:02:40;;;;;;;6.43;3.13;;;;;;;;;;4993823;28;20230;-63
2021/04/26 11:05:16;;;;;;;5.10;3.60;;;;;;;;;;4991966;28;20260;-58
2021/04/26 11:07:45;;;;;;;4.90;3.50;;;;;;;;;;4991945;28;20216;-63
2021/04/26 11:10:31;;;;;;;7.10;4.27;;;;;;;;;;4992893;28;20297;-62
2021/04/26 11:12:59;;;;;;;8.00;4.07;;;;;;;;;;4991832;28;20319;-62
2021/04/26 11:15:26;;;;;;;7.30;3.80;;;;;;;;;;4991915;28;20593;-61
2021/04/26 11:17:53;;;;;;;4.37;3.73;;;;;;;;;;4991828;28;20213;-62
2021/04/26 11:20:22;;;;;;;5.27;3.50;;;;;;;;;;4991809;28;20732;-62
2021/04/26 11:22:48;;;;;;;4.93;3.47;;;;;;;;;;4991701;28;20262;-62
2021/04/26 11:25:30;;;;;;;6.47;3.63;;;;;;;;;;4992106;28;20199;-62
2021/04/26 11:27:58;;;;;;;5.03;3.70;;;;;;;;;;4992543;28;20214;-61
2021/04/26 11:30:27;;;;;;;5.47;3.77;;;;;;;;;;4994921;28;20711;-65
2021/04/26 11:33:10;;;;;;;4.67;3.40;;;;;;;;;;4994685;28;20768;-64
2021/04/26 11:35:38;;;;;;;6.80;3.73;;;;;;;;;;4995242;28;20625;-64
2021/04/26 11:38:05;;;;;;;8.40;4.37;;;;;;;;;;4995110;28;20211;-64
2021/04/26 11:40:32;;;;;;;7.73;5.43;;;;;;;;;;4994868;28;20204;-64
2021/04/26 11:43:06;;;;;;;3.77;3.07;;;;;;;;;;4994516;28;20238;-64
2021/04/26 11:45:34;;;;;;;4.50;3.50;;;;;;;;;;4995079;28;20207;-63
2021/04/26 11:48:00;;;;;;;4.57;3.50;;;;;;;;;;4995012;28;20245;-63
2021/04/26 11:50:27;;;;;;;7.37;4.13;;;;;;;;;;4994476;28;20211;-65
2021/04/26 11:52:53;;;;;;;6.30;4.07;;;;;;;;;;4994916;28;20238;-59
2021/04/26 11:55:23;;;;;;;7.47;3.73;;;;;;;;;;4994624;28;20207;-65
2021/04/26 11:57:50;;;;;;;3.60;3.20;;;;;;;;;;4994523;28;20211;-66
2021/04/26 12:00:18;;;;;;;5.97;3.23;;;;;;;;;;4994560;28;20235;-65
2021/04/26 12:02:46;;;;;;;5.03;3.23;;;;;;;;;;4994705;28;20224;-67
2021/04/26 12:05:14;;;;;;;8.10;3.80;;;;;;;;;;4994406;28;20203;-65
2021/04/26 12:07:41;;;;;;;6.47;3.73;;;;;;;;;;4993933;28;20211;-63
2021/04/26 12:10:10;;;;;;;3.83;3.37;;;;;;;;;;4994213;28;20231;-65
2021/04/26 12:12:36;;;;;;;5.23;3.30;;;;;;;;;;4994261;28;20239;-66
2021/04/26 12:15:05;;;;;;;5.10;3.43;;;;;;;;;;4994486;28;20585;-64
2021/04/26 12:17:32;;;;;;;5.03;3.10;;;;;;;;;;4994385;28;20255;-64
2021/04/26 12:20:00;;;;;;;4.67;3.20;;;;;;;;;;4994132;28;20653;-65
2021/04/26 12:22:27;;;;;;;5.17;3.40;;;;;;;;;;4994159;28;20237;-65
2021/04/26 12:24:55;;;;;;;5.93;3.60;;;;;;;;;;4993624;28;20219;-66
2021/04/26 12:27:24;;;;;;;5.20;3.97;;;;;;;;;;4994263;28;20215;-59
2021/04/26 12:29:51;;;;;;;6.17;3.80;;;;;;;;;;4993911;28;20200;-65
2021/04/26 12:32:18;;;;;;;7.23;3.97;;;;;;;;;;4993916;28;20235;-66
2021/04/26 12:34:55;;;;;;;5.73;4.00;;;;;;;;;;4993548;28;20235;-65
2021/04/26 12:37:23;;;;;;;4.00;3.40;;;;;;;;;;4993864;28;20214;-64
2021/04/26 12:39:50;;;;;;;8.37;3.90;;;;;;;;;;4992867;28;20228;-61
2021/04/26 12:42:17;;;;;;;5.53;3.70;;;;;;;;;;4993747;28;20259;-63
2021/04/26 12:44:45;;;;;;;10.23;4.13;;;;;;;;;;4993552;28;20212;-64
2021/04/26 12:47:15;;;;;;;5.60;3.60;;;;;;;;;;4993726;28;20229;-63
2021/04/26 12:49:41;;;;;;;6.80;3.87;;;;;;;;;;4993209;28;20254;-62
2021/04/26 12:52:18;;;;;;;4.27;3.87;;;;;;;;;;4993293;28;20290;-63
2021/04/26 12:55:01;;;;;;;4.47;3.90;;;;;;;;;;4993463;28;20211;-63
2021/04/26 12:57:28;;;;;;;4.50;3.67;;;;;;;;;;4993510;28;20208;-61
2021/04/26 12:59:55;;;;;;;5.60;4.70;;;;;;;;;;4993333;28;20220;-64
2021/04/26 13:02:22;;;;;;;4.63;4.00;;;;;;;;;;4993251;28;20227;-62
2021/04/26 13:04:50;;;;;;;7.13;4.47;;;;;;;;;;4993523;28;20208;-62
2021/04/26 13:07:16;;;;;;;4.93;4.30;;;;;;;;;;4993542;28;20277;-61
2021/04/26 13:09:43;;;;;;;6.47;4.50;;;;;;;;;;4993349;28;20203;-63
2021/04/26 13:12:10;;;;;;;7.20;4.20;;;;;;;;;;4993131;28;20219;-61
2021/04/26 13:14:37;;;;;;;5.00;4.03;;;;;;;;;;4992860;28;20204;-65
2021/04/26 13:17:04;;;;;;;5.43;3.90;;;;;;;;;;4993272;28;20957;-63
2021/04/26 13:19:31;;;;;;;5.30;4.10;;;;;;;;;;4993076;28;20740;-62
2021/04/26 13:21:58;;;;;;;7.37;4.37;;;;;;;;;;4992898;28;20730;-63
2021/04/26 13:24:25;;;;;;;4.20;3.80;;;;;;;;;;4992608;28;20220;-58
2021/04/26 13:26:58;;;;;;;6.47;4.20;;;;;;;;;;4992963;28;20216;-65
2021/04/26 13:29:26;;;;;;;5.10;3.97;;;;;;;;;;4992726;28;20207;-59
2021/04/26 13:31:55;;;;;;;6.60;4.33;;;;;;;;;;4992320;28;20224;-63
2021/04/26 13:34:22;;;;;;;6.70;3.80;;;;;;;;;;4992695;28;20212;-67
2021/04/26 13:36:48;;;;;;;6.57;4.07;;;;;;;;;;4992855;28;20203;-64
2021/04/26 13:39:16;;;;;;;6.07;4.20;;;;;;;;;;4992778;28;20224;-65
2021/04/26 13:41:43;;;;;;;4.23;3.83;;;;;;;;;;4991962;28;20241;-64
2021/04/26 13:44:10;;;;;;;6.97;4.07;;;;;;;;;;4992119;28;20215;-64
2021/04/26 13:46:37;;;;;;;7.07;4.07;;;;;;;;;;4991923;28;20204;-61
2021/04/26 13:49:04;;;;;;;6.40;4.20;;;;;;;;;;4992645;28;20200;-61
2021/04/26 13:51:31;;;;;;;6.03;4.33;;;;;;;;;;4990958;28;20236;-58
2021/04/26 13:53:57;;;;;;;4.70;4.20;;;;;;;;;;4992472;28;20212;-64
2021/04/26 13:56:24;;;;;;;4.90;4.00;;;;;;;;;;4992420;28;20208;-60
2021/04/26 13:58:51;;;;;;;5.70;3.50;;;;;;;;;;4992603;28;20231;-65
2021/04/26 14:01:19;;;;;;;8.10;4.77;;;;;;;;;;4992147;28;20605;-67
2021/04/26 14:03:46;;;;;;;8.00;4.10;;;;;;;;;;4992320;28;20211;-61
2021/04/26 14:06:13;;;;;;;6.77;4.43;;;;;;;;;;4993087;28;20215;-62
2021/04/26 14:08:39;;;;;;;4.90;4.00;;;;;;;;;;4992953;28;20219;-64
2021/04/26 14:11:15;;;;;;;5.30;4.10;;;;;;;;;;5060218;23;20203;-62
2021/04/26 14:13:42;;;;;;;5.70;4.07;;;;;;;;;;4991677;28;20211;-60
2021/04/26 14:16:08;;;;;;;6.80;4.53;;;;;;;;;;4992887;28;20207;-58
2021/04/26 14:18:35;;;;;;;7.53;4.37;;;;;;;;;;4992877;28;20238;-57
2021/04/26 14:21:02;;;;;;;5.60;4.07;;;;;;;;;;4992382;28;20227;-64
2021/04/26 14:23:29;;;;;;;4.97;4.20;;;;;;;;;;4992230;28;20222;-64
2021/04/26 14:25:57;;;;;;;8.53;4.00;;;;;;;;;;4992428;28;20389;-65
2021/04/26 14:28:23;;;;;;;4.83;4.30;;;;;;;;;;4992561;28;20261;-63
2021/04/26 14:30:50;;;;;;;4.47;4.07;;;;;;;;;;4992163;28;20215;-65
2021/04/26 14:33:16;;;;;;;9.23;4.80;;;;;;;;;;4991893;28;20204;-64
2021/04/26 14:35:43;;;;;;;5.63;4.37;;;;;;;;;;4992142;28;20218;-65
2021/04/26 14:38:15;;;;;;;5.40;4.13;;;;;;;;;;4991808;28;20214;-65
2021/04/26 14:40:42;;;;;;;6.83;4.00;;;;;;;;;;4992158;28;20204;-66